YAYEYBHM

Guest
Details From YAYE - Ayers Rock/connellan
To YBHM - Hamilton Island
Flight Number -
Tags Routegen
Created
Modified
Stats Distance 1,078 nm / 1,996 km
Max Altitude 0 ft / 0 m
Waypoints 9
Social Downloads 0
Likes 0
Share VATSIM

Download

Looking for another format? Having issues loading an existing format? Contact us
Advertisement - Login to hide

Notes

None

Route

YAYE -25.09_+130.84 -24.97_+130.95 DESET -23.56_+138.06 -22.62_+141.54 -21.62_+144.97 -20.00_+148.67 YBHM

ID Type Via Altitude Latitude Longitude Leg Dist Tot Dist Heading (true) Name
O YAYE APT - 0 ft / 0 m -25.17809˚ 130.96671˚ - 0 nm - -
-25.09_+130.84 DME - 0 ft / 0 m -25.08564˚ 130.84371˚ 8 nm 8 nm 310° / 310° -
-24.97_+130.95 DME - 0 ft / 0 m -24.97421˚ 130.94544˚ 8 nm 17 nm 40° / 40° -
DESET FIX - 0 ft / 0 m -24.84500˚ 134.77000˚ 208 nm 225 nm 89° / 87° -
-23.56_+138.06 DME - 0 ft / 0 m -23.55540˚ 138.06266˚ 196 nm 422 nm 67° / 66° -
-22.62_+141.54 DME - 0 ft / 0 m -22.62457˚ 141.54227˚ 200 nm 622 nm 74° / 73° -
-21.62_+144.97 DME - 0 ft / 0 m -21.61975˚ 144.97326˚ 200 nm 822 nm 73° / 72° -
-20.00_+148.67 DME - 0 ft / 0 m -20.00405˚ 148.66907˚ 229 nm 1051 nm 66° / 64° -
O YBHM APT - 0 ft / 0 m -20.35134˚ 148.94672˚ 26 nm 1077 nm 143° / 143° -

Altitude Profile

Advertisement - Login to hide

Weather


0- 5 10 15 20 25 30 35+ Temperature / ° C

Clouds and Precipitation
Forecast for 2017-12-14 12:00 UTC. Updated an hour ago

Ground ~20,000 ft ~40,000 ft Winds

YAYE

Details ICAO YAYE (AYQ)
Name Ayers Rock
Region Australia
Timezone Australia/Darwin (UTC+9.5)
Stats Elevation 1,625 ft / 495 m (AMSL)
Location -25.185555° 130.976642°
Runways 1
Magnetic Variation 3.930° E

METAR

YAYE 141000Z AUTO 18014KT 9999 // NCD 31/14 Q1010

Decode

TAF

Not found

Departure Runways

ID Width Length Bearing (true) Bearing (mag) Surface Threshold Offset Overrun Length
13 98 ft / 30 m 8,526 ft / 2,599 m 129.70° 125.77° Asphalt 0 ft / 0 m 0 ft / 0 m
31 98 ft / 30 m 8,526 ft / 2,599 m 309.70° 305.77° Asphalt 0 ft / 0 m 0 ft / 0 m

YBHM

Details ICAO YBHM (HTI)
Name Hamilton I.
Region Australia
Timezone Australia/Lindeman (UTC+10.0)
Stats Elevation 14 ft / 4 m (AMSL)
Location -20.357481° 148.951639°
Runways 1
Magnetic Variation 8.158° E

METAR

YBHM 141000Z AUTO 12018KT 9999 // BKN024 26/22 Q1010

Decode

TAF

Not found

Destination Runways

ID Width Length Bearing (true) Bearing (mag) Surface Threshold Offset Overrun Length
14 148 ft / 45 m 5,792 ft / 1,765 m 143.04° 134.88° Asphalt 0 ft / 0 m 0 ft / 0 m
32 148 ft / 45 m 5,792 ft / 1,765 m 323.03° 314.87° Asphalt 0 ft / 0 m 0 ft / 0 m